Flight Track Log - Related Links

Times and Time Zones

All times are in EST time to prevent confusion due to time zone crossing. See the SKW5228 flight status page for this flight to view local times or setup timezone preferences in your user account.

Time Position Orientation Groundspeed Altitude Reporting Facility
EST Latitude Longitude Course Direction KTS MPH feet Rate Location/Type
03:07PM 46.8986 -96.8169 213° Southwest 163 188 2,400  Level Minneapolis Center
03:08PM 46.8633 -96.8506 213° Southwest 157 181 4,400 2,195 Climbing Minneapolis Center
03:09PM 46.8094 -96.9072 216° Southwest 224 258 6,900 2,585 Climbing Minneapolis Center
03:10PM 46.7519 -96.9708 217° Southwest 246 283 9,700 2,585 Climbing Minneapolis Center
03:11PM 46.6944 -97.0325 216° Southwest 262 302 12,200 2,177 Climbing Minneapolis Center
03:12PM 46.6253 -97.1069 216° Southwest 293 337 14,200 2,146 Climbing Minneapolis Center
03:13PM 46.5531 -97.1847 217° Southwest 310 357 16,600 2,049 Climbing Minneapolis Center
03:14PM 46.4792 -97.2644 217° Southwest 314 361 18,400 1,610 Climbing Minneapolis Center
03:15PM 46.4139 -97.3325 216° Southwest 329 379 19,900 1,512 Climbing Minneapolis Center
03:16PM 46.3392 -97.4136 217° Southwest 336 387 21,500 1,463 Climbing Minneapolis Center
03:17PM 46.2628 -97.4931 216° Southwest 338 389 22,900 1,366 Climbing Minneapolis Center
03:19PM 46.1697 -97.5922 216° Southwest 347 399 24,300 1,220 Climbing Minneapolis Center
03:20PM 46.0908 -97.6728 215° Southwest 348 400 25,400 1,082 Climbing Minneapolis Center
03:21PM 46.0111 -97.7544 215° Southwest 350 403 26,500 878 Climbing Minneapolis Center
03:22PM 45.9297 -97.8400 216° Southwest 357 411 27,200 732 Climbing Minneapolis Center
03:23PM 45.8406 -97.9342 216° Southwest 363 418 28,000 683 Climbing Minneapolis Center
03:24PM 45.7567 -98.0211 216° Southwest 369 425 28,600 488 Climbing Minneapolis Center
03:25PM 45.6794 -98.1003 216° Southwest 372 428 29,000 439 Climbing Minneapolis Center
03:26PM 45.5939 -98.1881 216° Southwest 376 433 29,500 488 Climbing Minneapolis Center
03:27PM 45.5019 -98.2825 216° Southwest 379 436 30,000 390 Climbing Minneapolis Center
03:28PM 45.4153 -98.3681 215° Southwest 380 437 30,300 439 Climbing Minneapolis Center
03:29PM 45.3108 -98.4767 216° Southwest 386 444 30,900 488 Climbing Minneapolis Center
03:30PM 45.2231 -98.5664 216° Southwest 389 448 31,300 341 Climbing Minneapolis Center
03:31PM 45.1350 -98.6558 216° Southwest 391 450 31,600 341 Climbing Minneapolis Center
03:32PM 45.0458 -98.7456 215° Southwest 393 452 32,000 195 Climbing Minneapolis Center
03:33PM 44.9564 -98.8361 216° Southwest 396 456 32,000  Level Minneapolis Center
03:34PM 44.8653 -98.9275 215° Southwest 401 461 32,000  Level Minneapolis Center
03:35PM 44.7736 -99.0189 215° Southwest 404 465 32,000  Level Minneapolis Center
03:36PM 44.6825 -99.1108 216° Southwest 405 466 32,000  Level Minneapolis Center
03:37PM 44.5731 -99.2189 215° Southwest 403 464 32,000  Level Minneapolis Center
03:38PM 44.4819 -99.3094 215° Southwest 403 464 32,000  Level Minneapolis Center
03:39PM 44.3908 -99.3967 214° Southwest 400 460 32,000  Level Minneapolis Center
03:40PM 44.3019 -99.4861 216° Southwest 396 456 32,000  Level Minneapolis Center
03:41PM 44.2119 -99.5714 214° Southwest 394 453 32,000  Level Minneapolis Center
03:42PM 44.1228 -99.6594 215° Southwest 393 452 32,000  Level Minneapolis Center
03:43PM 44.0342 -99.7467 215° Southwest 392 451 32,000  Level Minneapolis Center
03:44PM 43.9442 -99.8333 215° Southwest 394 453 32,000  Level Minneapolis Center
03:45PM 43.8475 -99.9253 214° Southwest 395 455 32,000  Level Minneapolis Center
03:46PM 43.7572 -100.0117 215° Southwest 394 453 32,000  Level Minneapolis Center
03:47PM 43.6675 -100.0989 215° Southwest 394 453 32,000  Level Minneapolis Center
03:48PM 43.5581 -100.2011 214° Southwest 395 455 32,000  Level Minneapolis Center
03:50PM 43.3764 -100.3747 215° Southwest 397 457 32,000  Level Minneapolis Center
03:51PM 43.2844 -100.4592 214° Southwest 398 458 32,000  Level Minneapolis Center
03:52PM 43.1933 -100.5464 215° Southwest 398 458 32,000  Level Minneapolis Center
03:53PM 43.1008 -100.6314 214° Southwest 399 459 32,000  Level Minneapolis Center
03:54PM 43.0094 -100.7178 215° Southwest 399 459 32,000  Level Minneapolis Center
03:55PM 42.9161 -100.8022 214° Southwest 400 460 32,000  Level Minneapolis Center
03:56PM 42.8258 -100.8872 215° Southwest 399 459 32,000  Level Minneapolis Center
03:57PM 42.7150 -100.9892 214° Southwest 399 459 32,000  Level Minneapolis Center
03:58PM 42.6242 -101.0725 214° Southwest 398 458 32,000  Level Minneapolis Center
04:00PM 42.5317 -101.1561 214° Southwest 398 458 32,000  Level Minneapolis Center
04:01PM 42.4150 -101.2622 214° Southwest 398 458 32,000  Level Denver Center
04:02PM 42.3039 -101.3758 217° Southwest 393 452 32,000  Level Denver Center
04:03PM 42.2303 -101.4775 226° Southwest 395 455 32,000  Level Denver Center
04:04PM 42.1433 -101.5944 225° Southwest 397 457 32,000  Level Denver Center
04:05PM 42.0694 -101.6950 225° Southwest 394 453 32,000  Level Denver Center
04:06PM 41.9819 -101.8128 225° Southwest 398 458 32,000  Level Denver Center
04:07PM 41.9072 -101.9128 225° Southwest 397 457 32,000  Level Denver Center
04:08PM 41.8214 -102.0300 226° Southwest 396 456 32,000  Level Denver Center
04:09PM 41.7464 -102.1286 224° Southwest 394 453 32,000  Level Denver Center
04:10PM 41.6739 -102.2275 226° Southwest 390 449 32,000  Level Denver Center
04:11PM 41.5844 -102.3442 224° Southwest 399 459 32,000  Level Denver Center
04:12PM 41.5092 -102.4439 225° Southwest 399 459 32,000  Level Denver Center
04:13PM 41.4203 -102.5603 224° Southwest 401 461 32,000  Level Denver Center
04:14PM 41.3472 -102.6567 225° Southwest 400 460 32,000 -194 Level Denver Center
04:15PM 41.2586 -102.7719 224° Southwest 399 459 31,600 -677 Descending Denver Center
04:16PM 41.1806 -102.8722 224° Southwest 397 457 30,600 -774 Descending Denver Center
04:17PM 41.0953 -102.9828 224° Southwest 386 444 30,000 -293 Descending Denver Center
04:19PM 41.0281 -103.0786 227° Southwest 379 436 30,000  Level Denver Center
04:20PM 40.9517 -103.1828 226° Southwest 388 447 30,000  Level Denver Center
04:21PM 40.8781 -103.2886 227° Southwest 391 450 30,000 -194 Level Denver Center
04:22PM 40.8025 -103.3919 226° Southwest 391 450 29,600 -1,839 Descending Denver Center
04:23PM 40.7142 -103.5136 226° Southwest 386 444 26,200 -2,903 Descending Denver Center
04:24PM 40.6467 -103.6078 227° Southwest 364 419 23,600 -2,000 Descending Denver Center
04:25PM 40.5922 -103.6803 225° Southwest 355 409 22,100 -1,512 Descending Denver Center
04:26PM 40.5144 -103.7883 227° Southwest 343 395 20,500 -1,597 Descending Denver Center
04:27PM 40.4444 -103.8850 226° Southwest 339 390 18,800 -1,548 Descending Denver Center
04:28PM 40.3819 -103.9722 227° Southwest 328 377 17,300 -871 Descending Denver Center
04:29PM 40.3539 -104.0708 250° West 279 321 17,000 -629 Descending Denver Center
04:30PM 40.3542 -104.1803 270° West 299 344 16,000 -1,122 Descending Denver Center
04:31PM 40.3536 -104.2911 270° West 288 331 14,700 -1,220 Descending Denver Center
04:32PM 40.3431 -104.3850 262° West 265 305 13,500 -1,210 Descending Denver Center
04:33PM 40.3219 -104.4703 252° West 251 289 12,200 -1,258 Descending Denver Center
04:34PM 40.2772 -104.5461 232° Southwest 244 281 10,900 -1,258 Descending Denver Center
04:35PM 40.2378 -104.6158 233° Southwest 239 275 9,600 -1,122 Descending Denver Center
04:36PM 40.1847 -104.6728 219° Southwest 241 277 8,600 -780 Descending Denver Center
04:37PM 40.1361 -104.6917 197° South 239 275 8,000 -290 Descending Denver Center
04:38PM 40.0569 -104.6931 181° South 231 266 8,000 -339 Level Denver Center
04:39PM 39.9981 -104.6950 181° South 193 222 7,300 -774 Descending Denver Center
04:40PM 39.9469 -104.6953 180° South 184 212 6,400 -823 Descending Denver Center
04:41PM 39.9044 -104.6961 181° South 148 170 5,600 -774 Descending Denver Center

Login

Don't have an account? Register now (free) for customized features, flight alerts, and more!